Aeroporto :
LOGIN :

Iscrizione | Disclaimer

   EN    FR    IT 

 










Sommario :    VFR   VFR Marginale   IFR   IFR Intensivo   IFR Molto Intensivo
Visibilità : 
Base nubi : 
>= 8 km
>= 3000ft
5 / 8 km
1000 / 3000 ft
1500m / 5 km
500 / 1000 ft
800 / 1500m
200 / 500 ft
< 800m
< 200 ft
Simboli :   Temporali  Nebbia  Neve Forte  Precipitazioni Forti  Vento > 20 kt
SIGMETs :   Varie  Temporali  Ghiacco  Turbolenza  Onda orograficha  Ceneri Vulcaniche






- Altitudine del aeroporto : 56 ft
- Codice IATA : BZR


LFMU - Beziers / Vias

ULTIMO METAR :
  • 250730Z AUTO 07007KT CAVOK 24/18 Q1012 NOSIG

METARs OBSOLETI :
  • 250700Z AUTO 06008KT 020V090 CAVOK 23/19 Q1012 NOSIG
  • 250630Z AUTO 04007KT CAVOK 20/18 Q1012 NOSIG
  • 250600Z AUTO 03006KT 9999 FEW008 19/17 Q1012 NOSIG
  • 250530Z AUTO 04008KT CAVOK 19/17 Q1011 NOSIG
  • 250500Z AUTO 04010KT CAVOK 19/16 Q1011 TEMPO BKN007 BKN040
  • 250430Z AUTO 03007KT CAVOK 18/15 Q1011 TEMPO BKN007 BKN040
  • 250400Z AUTO 04006KT CAVOK 19/17 Q1011 TEMPO BKN007 BKN040
  • 250330Z AUTO 04006KT CAVOK 18/16 Q1011 TEMPO BKN007 BKN040
  • 250300Z AUTO 04005KT CAVOK 18/15 Q1011 TEMPO BKN007 BKN040

TAF TAF LFMU
Valido dal 25 a 03 ore il 26 a 03 ore UTC


250200Z 2503/2603 04008KT 9999 SCT010
PROB30
TEMPO 2503/2506 BKN007 BKN040
BECMG 2509/2511 12010KT
BECMG 2515/2517 13005KT
BECMG 2518/2520 BKN007
BECMG 2523/2601 06010KT
ATIS : +33 4 67 90 88 88



MetMap, La meteo Aeronautica in un colpo d'occhio ! - Copyright ORBIFLY Dicembre 2007 - Disclaimer

ORBIFLY MET'MAP TEAM :

Programmazione e sviluppo : Alexandra Zaïnal
Concezione : Baudouin d'Aumeries
Supporto tecnico e logistico : Manuel Goepfert
Aiuto : Marc-Olivier Méhu
Aiuto per la traduzione : Arnaldo La Scala




FONTI E CREDITI :

   NOAA